Portada
METAR-TAF:

METAR-TAF

Aeroports :

Vardø, Noruega

latitud: 70-21N, longitud: 031-03E, altitud: 12 m

Observació

L'informe es va fer fa 53 minuts, a les 17:50 UTC
Vent 12 kt del Est/Sud-Est
Temperatura 8°C
Humitat 93%
Pressió 1016 hPa
Visibilitat 10 km o més
Escasses núvols a una alçada de 400 ft
Cel ennuvolat a una alçada de 600 ft
pluja

METAR: ENSS 191750Z 12012KT 9999 RA FEW004 BKN006 08/07 Q1016 RMK WIND 500FT 11015KT

Hora: 20:43 (18:43 UTC)


TAF: manca

Observacions i pronòstics meteorològics de més de 4000 aeroports (METAR i TAF).

Les estacions disponibles són els punts grocs i vermells al mapa.

Posi el ratolí al punt desitjat per veure el nom de l'estació.

Feu clic per veure les observacions i els pronòstics meteorològics.

Per canviar el mapa: feu clic els botons verds amb una creu de color negre per apropar; al botó verd amb un guió per allunyar la imatge; o en les fletxes verdes per a mapes adjacents.


METAR-TAF: